sensor_id;sensor_type;location;lat;lon;timestamp;P1;durP1;ratioP1;P2;durP2;ratioP2
21206;SDS011;10761;48.532;8.026;2023-03-14T00:00:12;1.55;;;0.40;;
21206;SDS011;10761;48.532;8.026;2023-03-14T00:02:40;1.20;;;0.60;;
21206;SDS011;10761;48.532;8.026;2023-03-14T00:05:06;3.08;;;0.60;;
21206;SDS011;10761;48.532;8.026;2023-03-14T00:07:33;0.80;;;0.30;;
21206;SDS011;10761;48.532;8.026;2023-03-14T00:10:04;0.50;;;0.50;;
21206;SDS011;10761;48.532;8.026;2023-03-14T00:12:32;5.00;;;0.40;;
21206;SDS011;10761;48.532;8.026;2023-03-14T00:14:58;1.17;;;0.43;;
21206;SDS011;10761;48.532;8.026;2023-03-14T00:17:25;1.33;;;0.40;;
21206;SDS011;10761;48.532;8.026;2023-03-14T00:19:51;1.50;;;0.50;;
21206;SDS011;10761;48.532;8.026;2023-03-14T00:22:18;0.68;;;0.47;;
21206;SDS011;10761;48.532;8.026;2023-03-14T00:24:45;1.20;;;0.50;;
21206;SDS011;10761;48.532;8.026;2023-03-14T00:27:10;2.78;;;0.47;;
21206;SDS011;10761;48.532;8.026;2023-03-14T00:29:36;1.95;;;0.60;;
21206;SDS011;10761;48.532;8.026;2023-03-14T00:32:02;0.88;;;0.50;;
21206;SDS011;10761;48.532;8.026;2023-03-14T00:34:31;0.75;;;0.52;;
21206;SDS011;10761;48.532;8.026;2023-03-14T00:36:57;1.67;;;0.50;;
21206;SDS011;10761;48.532;8.026;2023-03-14T00:39:22;0.60;;;0.60;;
21206;SDS011;10761;48.532;8.026;2023-03-14T00:41:48;1.75;;;0.60;;
21206;SDS011;10761;48.532;8.026;2023-03-14T00:44:13;2.08;;;0.70;;
21206;SDS011;10761;48.532;8.026;2023-03-14T00:46:39;1.85;;;0.50;;
21206;SDS011;10761;48.532;8.026;2023-03-14T00:49:04;1.55;;;0.52;;
21206;SDS011;10761;48.532;8.026;2023-03-14T00:51:30;1.38;;;0.43;;
21206;SDS011;10761;48.532;8.026;2023-03-14T00:53:56;1.42;;;0.50;;
21206;SDS011;10761;48.532;8.026;2023-03-14T00:56:21;0.98;;;0.40;;
21206;SDS011;10761;48.532;8.026;2023-03-14T00:58:47;1.05;;;0.50;;
21206;SDS011;10761;48.532;8.026;2023-03-14T01:01:13;1.20;;;0.52;;
21206;SDS011;10761;48.532;8.026;2023-03-14T01:03:43;0.77;;;0.60;;
21206;SDS011;10761;48.532;8.026;2023-03-14T01:06:14;2.40;;;0.50;;
21206;SDS011;10761;48.532;8.026;2023-03-14T01:08:41;3.50;;;0.60;;
21206;SDS011;10761;48.532;8.026;2023-03-14T01:11:08;1.00;;;0.38;;
21206;SDS011;10761;48.532;8.026;2023-03-14T01:13:35;0.47;;;0.40;;
21206;SDS011;10761;48.532;8.026;2023-03-14T01:16:05;1.35;;;0.57;;
21206;SDS011;10761;48.532;8.026;2023-03-14T01:18:33;0.52;;;0.40;;
21206;SDS011;10761;48.532;8.026;2023-03-14T01:21:03;1.02;;;0.38;;
21206;SDS011;10761;48.532;8.026;2023-03-14T01:26:00;1.75;;;0.60;;
21206;SDS011;10761;48.532;8.026;2023-03-14T01:28:25;1.40;;;0.73;;
21206;SDS011;10761;48.532;8.026;2023-03-14T01:30:51;2.88;;;0.50;;
21206;SDS011;10761;48.532;8.026;2023-03-14T01:33:16;1.20;;;0.52;;
21206;SDS011;10761;48.532;8.026;2023-03-14T01:35:42;1.45;;;0.50;;
21206;SDS011;10761;48.532;8.026;2023-03-14T01:38:08;2.05;;;0.60;;
21206;SDS011;10761;48.532;8.026;2023-03-14T01:40:33;0.47;;;0.45;;
21206;SDS011;10761;48.532;8.026;2023-03-14T01:43:05;1.60;;;0.52;;
21206;SDS011;10761;48.532;8.026;2023-03-14T01:48:28;1.02;;;0.40;;
21206;SDS011;10761;48.532;8.026;2023-03-14T01:50:59;1.98;;;0.50;;
21206;SDS011;10761;48.532;8.026;2023-03-14T01:53:27;2.50;;;0.60;;
21206;SDS011;10761;48.532;8.026;2023-03-14T01:55:53;1.90;;;0.65;;
21206;SDS011;10761;48.532;8.026;2023-03-14T01:58:24;1.85;;;0.60;;
21206;SDS011;10761;48.532;8.026;2023-03-14T02:00:53;1.63;;;0.73;;
21206;SDS011;10761;48.532;8.026;2023-03-14T02:03:20;3.92;;;0.90;;
21206;SDS011;10761;48.532;8.026;2023-03-14T02:05:48;3.00;;;0.60;;
21206;SDS011;10761;48.532;8.026;2023-03-14T02:08:16;2.38;;;0.60;;
21206;SDS011;10761;48.532;8.026;2023-03-14T02:10:45;1.52;;;0.70;;
21206;SDS011;10761;48.532;8.026;2023-03-14T02:13:13;3.72;;;0.70;;
21206;SDS011;10761;48.532;8.026;2023-03-14T02:15:40;2.35;;;0.70;;
21206;SDS011;10761;48.532;8.026;2023-03-14T02:18:06;3.13;;;0.70;;
21206;SDS011;10761;48.532;8.026;2023-03-14T02:23:07;4.88;;;0.88;;
21206;SDS011;10761;48.532;8.026;2023-03-14T02:28:08;2.35;;;0.60;;
21206;SDS011;10761;48.532;8.026;2023-03-14T02:30:34;2.17;;;0.73;;
21206;SDS011;10761;48.532;8.026;2023-03-14T02:35:38;1.42;;;0.60;;
21206;SDS011;10761;48.532;8.026;2023-03-14T02:41:02;2.00;;;0.77;;
21206;SDS011;10761;48.532;8.026;2023-03-14T02:43:28;3.45;;;0.80;;
21206;SDS011;10761;48.532;8.026;2023-03-14T02:45:54;3.03;;;0.75;;
21206;SDS011;10761;48.532;8.026;2023-03-14T02:48:26;2.38;;;1.05;;
21206;SDS011;10761;48.532;8.026;2023-03-14T02:50:56;1.98;;;0.68;;
21206;SDS011;10761;48.532;8.026;2023-03-14T02:53:27;1.92;;;0.65;;
21206;SDS011;10761;48.532;8.026;2023-03-14T02:55:59;2.28;;;0.85;;
21206;SDS011;10761;48.532;8.026;2023-03-14T02:58:25;4.28;;;0.85;;
21206;SDS011;10761;48.532;8.026;2023-03-14T03:00:51;4.43;;;0.90;;
21206;SDS011;10761;48.532;8.026;2023-03-14T03:03:17;3.40;;;0.60;;
21206;SDS011;10761;48.532;8.026;2023-03-14T03:05:47;3.47;;;1.20;;
21206;SDS011;10761;48.532;8.026;2023-03-14T03:08:17;4.50;;;1.08;;
21206;SDS011;10761;48.532;8.026;2023-03-14T03:10:47;4.15;;;0.70;;
21206;SDS011;10761;48.532;8.026;2023-03-14T03:13:13;2.70;;;0.90;;
21206;SDS011;10761;48.532;8.026;2023-03-14T03:15:39;2.55;;;0.73;;
21206;SDS011;10761;48.532;8.026;2023-03-14T03:18:05;3.30;;;0.68;;
21206;SDS011;10761;48.532;8.026;2023-03-14T03:20:31;2.85;;;0.80;;
21206;SDS011;10761;48.532;8.026;2023-03-14T03:22:58;5.03;;;0.90;;
21206;SDS011;10761;48.532;8.026;2023-03-14T03:25:24;5.82;;;1.00;;
21206;SDS011;10761;48.532;8.026;2023-03-14T03:27:50;4.35;;;0.90;;
21206;SDS011;10761;48.532;8.026;2023-03-14T03:30:15;2.85;;;0.80;;
21206;SDS011;10761;48.532;8.026;2023-03-14T03:32:41;5.05;;;0.95;;
21206;SDS011;10761;48.532;8.026;2023-03-14T03:35:07;3.22;;;0.70;;
21206;SDS011;10761;48.532;8.026;2023-03-14T03:37:33;3.58;;;0.77;;
21206;SDS011;10761;48.532;8.026;2023-03-14T03:39:59;3.97;;;0.80;;
21206;SDS011;10761;48.532;8.026;2023-03-14T03:42:28;2.97;;;0.80;;
21206;SDS011;10761;48.532;8.026;2023-03-14T03:44:54;4.60;;;0.60;;
21206;SDS011;10761;48.532;8.026;2023-03-14T03:47:20;3.72;;;0.73;;
21206;SDS011;10761;48.532;8.026;2023-03-14T03:49:45;4.03;;;1.10;;
21206;SDS011;10761;48.532;8.026;2023-03-14T03:52:11;3.45;;;0.70;;
21206;SDS011;10761;48.532;8.026;2023-03-14T03:54:36;4.50;;;0.80;;
21206;SDS011;10761;48.532;8.026;2023-03-14T03:57:02;4.68;;;0.70;;
21206;SDS011;10761;48.532;8.026;2023-03-14T03:59:28;1.83;;;0.65;;
21206;SDS011;10761;48.532;8.026;2023-03-14T04:01:53;3.65;;;0.80;;
21206;SDS011;10761;48.532;8.026;2023-03-14T04:04:19;7.25;;;1.00;;
21206;SDS011;10761;48.532;8.026;2023-03-14T04:06:45;2.50;;;0.70;;
21206;SDS011;10761;48.532;8.026;2023-03-14T04:09:10;1.33;;;0.60;;
21206;SDS011;10761;48.532;8.026;2023-03-14T04:11:37;3.90;;;0.80;;
21206;SDS011;10761;48.532;8.026;2023-03-14T04:14:03;2.72;;;0.80;;
21206;SDS011;10761;48.532;8.026;2023-03-14T04:16:29;7.03;;;1.27;;
21206;SDS011;10761;48.532;8.026;2023-03-14T04:18:58;4.20;;;1.27;;
21206;SDS011;10761;48.532;8.026;2023-03-14T04:21:24;4.43;;;0.95;;
21206;SDS011;10761;48.532;8.026;2023-03-14T04:23:50;3.53;;;0.82;;
21206;SDS011;10761;48.532;8.026;2023-03-14T04:26:16;4.00;;;0.90;;
21206;SDS011;10761;48.532;8.026;2023-03-14T04:28:41;3.65;;;0.70;;
21206;SDS011;10761;48.532;8.026;2023-03-14T04:31:10;3.90;;;1.10;;
21206;SDS011;10761;48.532;8.026;2023-03-14T04:33:37;3.78;;;1.25;;
21206;SDS011;10761;48.532;8.026;2023-03-14T04:36:04;2.25;;;0.47;;
21206;SDS011;10761;48.532;8.026;2023-03-14T04:38:30;3.90;;;0.90;;
21206;SDS011;10761;48.532;8.026;2023-03-14T04:40:56;3.58;;;0.60;;
21206;SDS011;10761;48.532;8.026;2023-03-14T04:43:22;4.15;;;0.60;;
21206;SDS011;10761;48.532;8.026;2023-03-14T04:45:48;1.63;;;0.63;;
21206;SDS011;10761;48.532;8.026;2023-03-14T04:48:13;6.15;;;1.25;;
21206;SDS011;10761;48.532;8.026;2023-03-14T04:50:39;2.38;;;0.68;;
21206;SDS011;10761;48.532;8.026;2023-03-14T04:53:05;4.13;;;0.73;;
21206;SDS011;10761;48.532;8.026;2023-03-14T04:55:31;2.65;;;0.70;;
21206;SDS011;10761;48.532;8.026;2023-03-14T04:57:57;2.17;;;0.52;;
21206;SDS011;10761;48.532;8.026;2023-03-14T05:00:23;0.95;;;0.40;;
21206;SDS011;10761;48.532;8.026;2023-03-14T05:02:49;2.10;;;0.65;;
21206;SDS011;10761;48.532;8.026;2023-03-14T05:05:15;2.13;;;0.65;;
21206;SDS011;10761;48.532;8.026;2023-03-14T05:07:41;2.03;;;0.70;;
21206;SDS011;10761;48.532;8.026;2023-03-14T05:10:07;4.32;;;0.93;;
21206;SDS011;10761;48.532;8.026;2023-03-14T05:12:33;2.63;;;0.77;;
21206;SDS011;10761;48.532;8.026;2023-03-14T05:14:58;4.22;;;0.68;;
21206;SDS011;10761;48.532;8.026;2023-03-14T05:17:24;2.83;;;0.68;;
21206;SDS011;10761;48.532;8.026;2023-03-14T05:19:49;4.25;;;0.77;;
21206;SDS011;10761;48.532;8.026;2023-03-14T05:22:15;2.80;;;0.65;;
21206;SDS011;10761;48.532;8.026;2023-03-14T05:24:41;3.72;;;0.68;;
21206;SDS011;10761;48.532;8.026;2023-03-14T05:27:06;3.30;;;0.80;;
21206;SDS011;10761;48.532;8.026;2023-03-14T05:29:32;3.67;;;0.80;;
21206;SDS011;10761;48.532;8.026;2023-03-14T05:31:57;1.35;;;0.40;;
21206;SDS011;10761;48.532;8.026;2023-03-14T05:34:23;2.20;;;0.80;;
21206;SDS011;10761;48.532;8.026;2023-03-14T05:36:48;1.35;;;0.70;;
21206;SDS011;10761;48.532;8.026;2023-03-14T05:39:14;4.78;;;1.00;;
21206;SDS011;10761;48.532;8.026;2023-03-14T05:41:40;1.40;;;0.50;;
21206;SDS011;10761;48.532;8.026;2023-03-14T05:44:05;5.07;;;0.47;;
21206;SDS011;10761;48.532;8.026;2023-03-14T05:46:31;3.00;;;0.68;;
21206;SDS011;10761;48.532;8.026;2023-03-14T05:48:59;2.22;;;0.80;;
21206;SDS011;10761;48.532;8.026;2023-03-14T05:51:25;2.22;;;0.50;;
21206;SDS011;10761;48.532;8.026;2023-03-14T05:53:52;1.15;;;0.47;;
21206;SDS011;10761;48.532;8.026;2023-03-14T05:56:18;1.38;;;0.50;;
21206;SDS011;10761;48.532;8.026;2023-03-14T05:58:44;1.35;;;0.52;;
21206;SDS011;10761;48.532;8.026;2023-03-14T06:01:09;2.97;;;0.40;;
21206;SDS011;10761;48.532;8.026;2023-03-14T06:03:35;3.67;;;0.80;;
21206;SDS011;10761;48.532;8.026;2023-03-14T06:06:01;2.00;;;0.30;;
21206;SDS011;10761;48.532;8.026;2023-03-14T06:08:26;3.28;;;0.50;;
21206;SDS011;10761;48.532;8.026;2023-03-14T06:10:53;2.97;;;0.20;;
21206;SDS011;10761;48.532;8.026;2023-03-14T06:13:18;4.50;;;0.60;;
21206;SDS011;10761;48.532;8.026;2023-03-14T06:15:44;2.20;;;0.52;;
21206;SDS011;10761;48.532;8.026;2023-03-14T06:18:10;1.05;;;0.40;;
21206;SDS011;10761;48.532;8.026;2023-03-14T06:20:36;1.30;;;0.50;;
21206;SDS011;10761;48.532;8.026;2023-03-14T06:23:04;1.13;;;0.38;;
21206;SDS011;10761;48.532;8.026;2023-03-14T06:25:31;1.88;;;0.60;;
21206;SDS011;10761;48.532;8.026;2023-03-14T06:27:57;6.35;;;0.90;;
21206;SDS011;10761;48.532;8.026;2023-03-14T06:30:22;1.70;;;0.57;;
21206;SDS011;10761;48.532;8.026;2023-03-14T06:32:48;2.50;;;0.52;;
21206;SDS011;10761;48.532;8.026;2023-03-14T06:35:14;1.52;;;0.50;;
21206;SDS011;10761;48.532;8.026;2023-03-14T06:37:40;1.73;;;0.40;;
21206;SDS011;10761;48.532;8.026;2023-03-14T06:40:06;0.65;;;0.43;;
21206;SDS011;10761;48.532;8.026;2023-03-14T06:42:32;4.07;;;0.65;;
21206;SDS011;10761;48.532;8.026;2023-03-14T06:44:58;3.40;;;0.60;;
21206;SDS011;10761;48.532;8.026;2023-03-14T06:47:23;1.90;;;0.60;;
21206;SDS011;10761;48.532;8.026;2023-03-14T06:49:49;2.70;;;0.60;;
21206;SDS011;10761;48.532;8.026;2023-03-14T06:52:15;1.40;;;0.52;;
21206;SDS011;10761;48.532;8.026;2023-03-14T06:54:40;3.40;;;0.32;;
21206;SDS011;10761;48.532;8.026;2023-03-14T06:57:06;0.63;;;0.35;;
21206;SDS011;10761;48.532;8.026;2023-03-14T06:59:31;4.07;;;0.77;;
21206;SDS011;10761;48.532;8.026;2023-03-14T07:01:57;2.47;;;0.55;;
21206;SDS011;10761;48.532;8.026;2023-03-14T07:04:22;5.03;;;0.60;;
21206;SDS011;10761;48.532;8.026;2023-03-14T07:06:48;3.47;;;0.40;;
21206;SDS011;10761;48.532;8.026;2023-03-14T07:09:14;1.10;;;0.40;;
21206;SDS011;10761;48.532;8.026;2023-03-14T07:11:41;0.40;;;0.30;;
21206;SDS011;10761;48.532;8.026;2023-03-14T07:14:07;1.67;;;0.40;;
21206;SDS011;10761;48.532;8.026;2023-03-14T07:16:33;3.08;;;0.50;;
21206;SDS011;10761;48.532;8.026;2023-03-14T07:18:59;1.95;;;0.40;;
21206;SDS011;10761;48.532;8.026;2023-03-14T07:21:26;2.15;;;0.63;;
21206;SDS011;10761;48.532;8.026;2023-03-14T07:23:52;1.75;;;0.60;;
21206;SDS011;10761;48.532;8.026;2023-03-14T07:26:17;4.28;;;0.55;;
21206;SDS011;10761;48.532;8.026;2023-03-14T07:28:43;1.10;;;0.50;;
21206;SDS011;10761;48.532;8.026;2023-03-14T07:31:09;3.10;;;0.57;;
21206;SDS011;10761;48.532;8.026;2023-03-14T07:33:34;1.83;;;0.32;;
21206;SDS011;10761;48.532;8.026;2023-03-14T07:36:00;0.63;;;0.60;;
21206;SDS011;10761;48.532;8.026;2023-03-14T07:38:26;1.05;;;0.38;;
21206;SDS011;10761;48.532;8.026;2023-03-14T07:40:59;1.60;;;0.55;;
21206;SDS011;10761;48.532;8.026;2023-03-14T07:43:25;1.67;;;0.45;;
21206;SDS011;10761;48.532;8.026;2023-03-14T07:45:51;2.60;;;0.80;;
21206;SDS011;10761;48.532;8.026;2023-03-14T07:48:16;2.67;;;0.50;;
21206;SDS011;10761;48.532;8.026;2023-03-14T07:50:42;2.25;;;0.70;;
21206;SDS011;10761;48.532;8.026;2023-03-14T07:53:08;1.20;;;0.63;;
21206;SDS011;10761;48.532;8.026;2023-03-14T07:55:33;2.20;;;0.60;;
21206;SDS011;10761;48.532;8.026;2023-03-14T07:57:59;2.85;;;0.73;;
21206;SDS011;10761;48.532;8.026;2023-03-14T08:00:25;1.10;;;0.50;;
21206;SDS011;10761;48.532;8.026;2023-03-14T08:02:50;0.75;;;0.43;;
21206;SDS011;10761;48.532;8.026;2023-03-14T08:05:16;1.90;;;0.50;;
21206;SDS011;10761;48.532;8.026;2023-03-14T08:07:42;1.40;;;0.63;;
21206;SDS011;10761;48.532;8.026;2023-03-14T08:10:08;2.25;;;0.50;;
21206;SDS011;10761;48.532;8.026;2023-03-14T08:12:34;1.65;;;0.63;;
21206;SDS011;10761;48.532;8.026;2023-03-14T08:14:59;0.88;;;0.38;;
21206;SDS011;10761;48.532;8.026;2023-03-14T08:17:25;0.80;;;0.30;;
21206;SDS011;10761;48.532;8.026;2023-03-14T08:19:51;2.75;;;0.50;;
21206;SDS011;10761;48.532;8.026;2023-03-14T08:22:16;1.98;;;1.08;;
21206;SDS011;10761;48.532;8.026;2023-03-14T08:24:42;1.05;;;0.28;;
21206;SDS011;10761;48.532;8.026;2023-03-14T08:27:07;2.33;;;0.43;;
21206;SDS011;10761;48.532;8.026;2023-03-14T08:29:33;3.03;;;0.40;;
21206;SDS011;10761;48.532;8.026;2023-03-14T08:31:58;0.55;;;0.25;;
21206;SDS011;10761;48.532;8.026;2023-03-14T08:34:24;0.85;;;0.30;;
21206;SDS011;10761;48.532;8.026;2023-03-14T08:36:50;1.38;;;0.43;;
21206;SDS011;10761;48.532;8.026;2023-03-14T08:39:15;0.93;;;0.30;;
21206;SDS011;10761;48.532;8.026;2023-03-14T08:41:41;1.38;;;0.35;;
21206;SDS011;10761;48.532;8.026;2023-03-14T08:44:08;0.45;;;0.40;;
21206;SDS011;10761;48.532;8.026;2023-03-14T08:46:36;0.57;;;0.28;;
21206;SDS011;10761;48.532;8.026;2023-03-14T08:49:02;0.40;;;0.30;;
21206;SDS011;10761;48.532;8.026;2023-03-14T08:51:28;8.32;;;0.30;;
21206;SDS011;10761;48.532;8.026;2023-03-14T08:53:54;0.70;;;0.50;;
21206;SDS011;10761;48.532;8.026;2023-03-14T08:56:20;2.90;;;0.68;;
21206;SDS011;10761;48.532;8.026;2023-03-14T08:58:46;0.73;;;0.35;;
21206;SDS011;10761;48.532;8.026;2023-03-14T09:01:11;1.00;;;0.32;;
21206;SDS011;10761;48.532;8.026;2023-03-14T09:03:37;0.57;;;0.30;;
21206;SDS011;10761;48.532;8.026;2023-03-14T09:06:04;1.23;;;0.20;;
21206;SDS011;10761;48.532;8.026;2023-03-14T09:08:30;0.75;;;0.20;;
21206;SDS011;10761;48.532;8.026;2023-03-14T09:10:56;0.35;;;0.20;;
21206;SDS011;10761;48.532;8.026;2023-03-14T09:13:22;0.85;;;0.47;;
21206;SDS011;10761;48.532;8.026;2023-03-14T09:15:54;0.93;;;0.20;;
21206;SDS011;10761;48.532;8.026;2023-03-14T09:18:20;0.28;;;0.20;;
21206;SDS011;10761;48.532;8.026;2023-03-14T09:20:47;0.60;;;0.28;;
21206;SDS011;10761;48.532;8.026;2023-03-14T09:23:13;1.95;;;0.20;;
21206;SDS011;10761;48.532;8.026;2023-03-14T09:25:39;0.30;;;0.30;;
21206;SDS011;10761;48.532;8.026;2023-03-14T09:28:05;0.38;;;0.20;;
21206;SDS011;10761;48.532;8.026;2023-03-14T09:30:30;0.10;;;0.10;;
21206;SDS011;10761;48.532;8.026;2023-03-14T09:32:56;0.30;;;0.20;;
21206;SDS011;10761;48.532;8.026;2023-03-14T09:35:22;0.68;;;0.25;;
21206;SDS011;10761;48.532;8.026;2023-03-14T09:37:48;0.10;;;0.10;;
21206;SDS011;10761;48.532;8.026;2023-03-14T09:40:17;0.10;;;0.10;;
21206;SDS011;10761;48.532;8.026;2023-03-14T09:42:44;2.42;;;0.40;;
21206;SDS011;10761;48.532;8.026;2023-03-14T09:45:26;0.70;;;0.40;;
21206;SDS011;10761;48.532;8.026;2023-03-14T09:48:04;0.90;;;0.40;;
21206;SDS011;10761;48.532;8.026;2023-03-14T09:50:40;0.40;;;0.20;;
21206;SDS011;10761;48.532;8.026;2023-03-14T09:53:16;1.75;;;0.43;;
21206;SDS011;10761;48.532;8.026;2023-03-14T09:55:45;1.23;;;0.20;;
21206;SDS011;10761;48.532;8.026;2023-03-14T09:58:19;0.38;;;0.20;;
21206;SDS011;10761;48.532;8.026;2023-03-14T10:00:46;0.80;;;0.40;;
21206;SDS011;10761;48.532;8.026;2023-03-14T10:05:38;0.20;;;0.17;;
21206;SDS011;10761;48.532;8.026;2023-03-14T10:08:05;0.15;;;0.15;;
21206;SDS011;10761;48.532;8.026;2023-03-14T10:10:31;1.23;;;0.30;;
21206;SDS011;10761;48.532;8.026;2023-03-14T10:13:19;1.42;;;0.25;;
21206;SDS011;10761;48.532;8.026;2023-03-14T10:18:21;0.25;;;0.25;;
21206;SDS011;10761;48.532;8.026;2023-03-14T10:20:49;2.20;;;0.30;;
21206;SDS011;10761;48.532;8.026;2023-03-14T10:23:27;1.40;;;0.45;;
21206;SDS011;10761;48.532;8.026;2023-03-14T10:26:03;0.93;;;0.35;;
21206;SDS011;10761;48.532;8.026;2023-03-14T10:28:30;0.32;;;0.20;;
21206;SDS011;10761;48.532;8.026;2023-03-14T10:30:58;0.38;;;0.30;;
21206;SDS011;10761;48.532;8.026;2023-03-14T10:35:59;0.68;;;0.30;;
21206;SDS011;10761;48.532;8.026;2023-03-14T10:38:26;1.20;;;0.40;;
21206;SDS011;10761;48.532;8.026;2023-03-14T10:40:54;0.35;;;0.20;;
21206;SDS011;10761;48.532;8.026;2023-03-14T10:43:25;1.17;;;0.22;;
21206;SDS011;10761;48.532;8.026;2023-03-14T10:46:05;0.10;;;0.10;;
21206;SDS011;10761;48.532;8.026;2023-03-14T10:48:39;0.55;;;0.25;;
21206;SDS011;10761;48.532;8.026;2023-03-14T10:56:11;1.30;;;0.30;;
21206;SDS011;10761;48.532;8.026;2023-03-14T10:58:45;0.70;;;0.25;;
21206;SDS011;10761;48.532;8.026;2023-03-14T11:15:25;0.38;;;0.10;;
21206;SDS011;10761;48.532;8.026;2023-03-14T11:17:58;1.33;;;0.35;;
21206;SDS011;10761;48.532;8.026;2023-03-14T11:20:46;0.32;;;0.28;;
21206;SDS011;10761;48.532;8.026;2023-03-14T11:23:17;0.88;;;0.40;;
21206;SDS011;10761;48.532;8.026;2023-03-14T11:25:49;0.85;;;0.30;;
21206;SDS011;10761;48.532;8.026;2023-03-14T11:28:47;2.50;;;0.93;;
21206;SDS011;10761;48.532;8.026;2023-03-14T11:31:28;0.45;;;0.45;;
21206;SDS011;10761;48.532;8.026;2023-03-14T11:39:17;0.98;;;0.35;;
21206;SDS011;10761;48.532;8.026;2023-03-14T11:41:45;0.75;;;0.40;;
21206;SDS011;10761;48.532;8.026;2023-03-14T11:44:34;1.23;;;0.43;;
21206;SDS011;10761;48.532;8.026;2023-03-14T11:47:24;1.95;;;0.68;;
21206;SDS011;10761;48.532;8.026;2023-03-14T11:50:16;2.38;;;0.47;;
21206;SDS011;10761;48.532;8.026;2023-03-14T11:55:39;0.80;;;0.57;;
21206;SDS011;10761;48.532;8.026;2023-03-14T12:00:42;1.25;;;0.60;;
21206;SDS011;10761;48.532;8.026;2023-03-14T12:03:12;3.75;;;0.63;;
21206;SDS011;10761;48.532;8.026;2023-03-14T12:06:12;1.20;;;0.40;;
21206;SDS011;10761;48.532;8.026;2023-03-14T12:08:54;1.50;;;0.63;;
21206;SDS011;10761;48.532;8.026;2023-03-14T12:16:46;1.83;;;0.60;;
21206;SDS011;10761;48.532;8.026;2023-03-14T12:19:24;1.60;;;0.60;;
21206;SDS011;10761;48.532;8.026;2023-03-14T12:24:44;0.75;;;0.40;;
21206;SDS011;10761;48.532;8.026;2023-03-14T12:27:14;0.95;;;0.73;;
21206;SDS011;10761;48.532;8.026;2023-03-14T12:30:29;1.40;;;0.50;;
21206;SDS011;10761;48.532;8.026;2023-03-14T12:33:11;2.80;;;0.70;;
21206;SDS011;10761;48.532;8.026;2023-03-14T12:35:44;1.77;;;0.57;;
21206;SDS011;10761;48.532;8.026;2023-03-14T12:38:16;2.72;;;0.65;;
21206;SDS011;10761;48.532;8.026;2023-03-14T12:43:45;0.40;;;0.40;;
21206;SDS011;10761;48.532;8.026;2023-03-14T12:49:04;2.60;;;1.00;;
21206;SDS011;10761;48.532;8.026;2023-03-14T12:56:59;2.22;;;0.90;;
21206;SDS011;10761;48.532;8.026;2023-03-14T12:59:35;2.33;;;0.50;;
21206;SDS011;10761;48.532;8.026;2023-03-14T13:04:35;2.80;;;0.88;;
21206;SDS011;10761;48.532;8.026;2023-03-14T13:10:22;3.67;;;0.85;;
21206;SDS011;10761;48.532;8.026;2023-03-14T13:15:33;3.20;;;0.80;;
21206;SDS011;10761;48.532;8.026;2023-03-14T13:20:46;2.20;;;0.52;;
21206;SDS011;10761;48.532;8.026;2023-03-14T13:23:22;3.30;;;0.70;;
21206;SDS011;10761;48.532;8.026;2023-03-14T13:25:49;2.78;;;0.55;;
21206;SDS011;10761;48.532;8.026;2023-03-14T13:28:16;2.72;;;0.70;;
21206;SDS011;10761;48.532;8.026;2023-03-14T13:30:46;2.38;;;0.60;;
21206;SDS011;10761;48.532;8.026;2023-03-14T13:33:19;1.30;;;0.70;;
21206;SDS011;10761;48.532;8.026;2023-03-14T13:35:57;5.22;;;1.13;;
21206;SDS011;10761;48.532;8.026;2023-03-14T13:38:26;1.08;;;0.52;;
21206;SDS011;10761;48.532;8.026;2023-03-14T13:40:54;1.65;;;0.57;;
21206;SDS011;10761;48.532;8.026;2023-03-14T13:43:31;2.50;;;0.70;;
21206;SDS011;10761;48.532;8.026;2023-03-14T13:46:05;2.50;;;0.60;;
21206;SDS011;10761;48.532;8.026;2023-03-14T13:48:49;1.52;;;0.60;;
21206;SDS011;10761;48.532;8.026;2023-03-14T13:51:18;3.60;;;0.63;;
21206;SDS011;10761;48.532;8.026;2023-03-14T13:53:49;1.70;;;0.50;;
21206;SDS011;10761;48.532;8.026;2023-03-14T13:56:18;4.30;;;0.82;;
21206;SDS011;10761;48.532;8.026;2023-03-14T13:58:44;4.50;;;0.98;;
21206;SDS011;10761;48.532;8.026;2023-03-14T14:03:45;4.07;;;0.80;;
21206;SDS011;10761;48.532;8.026;2023-03-14T14:06:25;1.17;;;0.50;;
21206;SDS011;10761;48.532;8.026;2023-03-14T14:09:10;3.42;;;1.00;;
21206;SDS011;10761;48.532;8.026;2023-03-14T14:11:44;2.30;;;0.73;;
21206;SDS011;10761;48.532;8.026;2023-03-14T14:14:19;2.92;;;0.68;;
21206;SDS011;10761;48.532;8.026;2023-03-14T14:16:46;1.00;;;0.50;;
21206;SDS011;10761;48.532;8.026;2023-03-14T14:19:12;2.25;;;0.80;;
21206;SDS011;10761;48.532;8.026;2023-03-14T14:21:39;3.30;;;0.90;;
21206;SDS011;10761;48.532;8.026;2023-03-14T14:24:05;2.45;;;0.80;;
21206;SDS011;10761;48.532;8.026;2023-03-14T14:26:39;3.90;;;1.30;;
21206;SDS011;10761;48.532;8.026;2023-03-14T14:29:06;4.38;;;0.90;;
21206;SDS011;10761;48.532;8.026;2023-03-14T14:31:43;1.17;;;0.60;;
21206;SDS011;10761;48.532;8.026;2023-03-14T14:34:18;3.78;;;1.00;;
21206;SDS011;10761;48.532;8.026;2023-03-14T14:36:44;3.08;;;1.20;;
21206;SDS011;10761;48.532;8.026;2023-03-14T14:39:21;2.92;;;0.75;;
21206;SDS011;10761;48.532;8.026;2023-03-14T14:41:50;5.05;;;1.45;;
21206;SDS011;10761;48.532;8.026;2023-03-14T14:44:17;2.33;;;0.82;;
21206;SDS011;10761;48.532;8.026;2023-03-14T14:46:49;2.78;;;0.75;;
21206;SDS011;10761;48.532;8.026;2023-03-14T14:49:17;2.67;;;1.02;;
21206;SDS011;10761;48.532;8.026;2023-03-14T14:51:47;2.13;;;0.80;;
21206;SDS011;10761;48.532;8.026;2023-03-14T14:54:15;2.25;;;0.65;;
21206;SDS011;10761;48.532;8.026;2023-03-14T14:57:00;2.95;;;0.73;;
21206;SDS011;10761;48.532;8.026;2023-03-14T14:59:28;2.35;;;0.80;;
21206;SDS011;10761;48.532;8.026;2023-03-14T15:01:58;2.40;;;0.70;;
21206;SDS011;10761;48.532;8.026;2023-03-14T15:04:25;2.67;;;1.35;;
21206;SDS011;10761;48.532;8.026;2023-03-14T15:06:51;2.10;;;0.88;;
21206;SDS011;10761;48.532;8.026;2023-03-14T15:09:18;3.75;;;0.80;;
21206;SDS011;10761;48.532;8.026;2023-03-14T15:11:44;3.25;;;0.90;;
21206;SDS011;10761;48.532;8.026;2023-03-14T15:14:11;2.95;;;1.00;;
21206;SDS011;10761;48.532;8.026;2023-03-14T15:16:36;3.80;;;0.90;;
21206;SDS011;10761;48.532;8.026;2023-03-14T15:19:08;2.25;;;0.60;;
21206;SDS011;10761;48.532;8.026;2023-03-14T15:21:36;3.25;;;0.95;;
21206;SDS011;10761;48.532;8.026;2023-03-14T15:24:03;4.95;;;1.17;;
21206;SDS011;10761;48.532;8.026;2023-03-14T15:26:30;4.03;;;0.77;;
21206;SDS011;10761;48.532;8.026;2023-03-14T15:28:56;4.47;;;1.23;;
21206;SDS011;10761;48.532;8.026;2023-03-14T15:31:21;3.47;;;0.93;;
21206;SDS011;10761;48.532;8.026;2023-03-14T15:33:47;3.47;;;1.05;;
21206;SDS011;10761;48.532;8.026;2023-03-14T15:36:23;4.32;;;0.90;;
21206;SDS011;10761;48.532;8.026;2023-03-14T15:38:52;3.67;;;1.00;;
21206;SDS011;10761;48.532;8.026;2023-03-14T15:41:18;2.97;;;1.02;;
21206;SDS011;10761;48.532;8.026;2023-03-14T15:43:45;5.47;;;1.10;;
21206;SDS011;10761;48.532;8.026;2023-03-14T15:46:11;4.45;;;1.13;;
21206;SDS011;10761;48.532;8.026;2023-03-14T15:48:37;8.15;;;1.60;;
21206;SDS011;10761;48.532;8.026;2023-03-14T15:51:03;4.15;;;0.80;;
21206;SDS011;10761;48.532;8.026;2023-03-14T15:53:29;2.03;;;1.30;;
21206;SDS011;10761;48.532;8.026;2023-03-14T15:55:54;8.95;;;1.58;;
21206;SDS011;10761;48.532;8.026;2023-03-14T15:58:20;2.70;;;1.00;;
21206;SDS011;10761;48.532;8.026;2023-03-14T16:00:46;5.03;;;1.58;;
21206;SDS011;10761;48.532;8.026;2023-03-14T16:03:12;6.97;;;2.30;;
21206;SDS011;10761;48.532;8.026;2023-03-14T16:05:38;6.18;;;1.67;;
21206;SDS011;10761;48.532;8.026;2023-03-14T16:08:04;9.30;;;2.70;;
21206;SDS011;10761;48.532;8.026;2023-03-14T16:10:31;4.60;;;1.33;;
21206;SDS011;10761;48.532;8.026;2023-03-14T16:12:56;4.85;;;1.60;;
21206;SDS011;10761;48.532;8.026;2023-03-14T16:15:23;6.05;;;1.50;;
21206;SDS011;10761;48.532;8.026;2023-03-14T16:17:54;6.18;;;1.95;;
21206;SDS011;10761;48.532;8.026;2023-03-14T16:20:20;5.70;;;1.85;;